Time;durP1;ratioP1;P1;durP2;ratioP2;P2;SDS_P1;SDS_P2;PMS_P1;PMS_P2;Temp;Humidity;BMP_temperature;BMP_pressure;BME280_temperature;BME280_humidity;BME280_pressure;Samples;Min_cycle;Max_cycle;Signal;HPM_P1;HPM_P2
2022/07/16 00:02:28;;;;;;;0.10;0.10;;;;;;;20.82;50.27;102207.59;5062290;28;20044;-79
2022/07/16 00:04:54;;;;;;;0.00;0.00;;;;;;;20.78;50.09;102208.66;5071087;28;20058;-78
2022/07/16 00:07:21;;;;;;;0.00;0.00;;;;;;;20.71;49.91;102204.50;5067323;28;20037;-78
2022/07/16 00:09:47;;;;;;;0.10;0.10;;;;;;;20.69;49.80;102196.41;5068649;28;20032;-78
2022/07/16 00:12:13;;;;;;;0.00;0.00;;;;;;;20.67;49.33;102202.81;5066819;28;20035;-78
2022/07/16 00:14:39;;;;;;;0.28;0.28;;;;;;;20.57;50.67;102202.31;5064231;28;20044;-78
2022/07/16 00:17:05;;;;;;;0.10;0.10;;;;;;;20.62;49.61;102200.31;5068279;28;20088;-78
2022/07/16 00:19:31;;;;;;;0.00;0.00;;;;;;;20.61;49.28;102198.56;5073826;28;20547;-79
2022/07/16 00:21:58;;;;;;;0.00;0.00;;;;;;;20.57;49.66;102202.31;5063632;28;20032;-78
2022/07/16 00:24:25;;;;;;;0.00;0.00;;;;;;;20.55;50.27;102203.31;5064197;28;20435;-78
2022/07/16 00:26:51;;;;;;;0.20;0.20;;;;;;;20.56;50.70;102210.44;5066265;28;20032;-78
2022/07/16 00:29:18;;;;;;;0.00;0.00;;;;;;;20.61;50.92;102195.88;5069646;28;20063;-78
2022/07/16 00:31:47;;;;;;;0.10;0.10;;;;;;;20.67;49.79;102202.81;5063112;28;20054;-79
2022/07/16 00:34:13;;;;;;;0.00;0.00;;;;;;;20.69;50.06;102206.31;5062493;28;20060;-79
2022/07/16 00:36:40;;;;;;;0.80;0.45;;;;;;;20.62;51.56;102194.03;5070045;28;20047;-78
2022/07/16 00:39:08;;;;;;;0.00;0.00;;;;;;;20.73;51.08;102201.72;5069234;28;20032;-78
2022/07/16 00:41:36;;;;;;;0.00;0.00;;;;;;;20.73;51.91;102197.19;5064817;28;20558;-79
2022/07/16 00:44:05;;;;;;;0.00;0.00;;;;;;;20.81;51.44;102196.88;5066449;28;20117;-79
2022/07/16 00:46:31;;;;;;;0.00;0.00;;;;;;;20.83;51.69;102197.69;5067096;28;20024;-79
2022/07/16 00:48:58;;;;;;;0.10;0.10;;;;;;;20.83;52.38;102200.41;5067216;28;20036;-77
2022/07/16 00:51:26;;;;;;;0.00;0.00;;;;;;;20.86;52.11;102194.91;5067312;28;20029;-78
2022/07/16 00:53:53;;;;;;;0.00;0.00;;;;;;;20.84;53.57;102200.31;5065696;28;20055;-78
2022/07/16 00:56:20;;;;;;;0.20;0.20;;;;;;;20.81;53.28;102192.38;5067243;28;20460;-78
2022/07/16 00:58:48;;;;;;;0.00;0.00;;;;;;;20.90;52.47;102188.44;5068281;28;20537;-78
2022/07/16 01:01:15;;;;;;;0.30;0.30;;;;;;;20.93;51.90;102193.66;5061167;28;20033;-78
2022/07/16 01:03:43;;;;;;;0.05;0.05;;;;;;;20.95;53.88;102199.88;5060248;28;20057;-78
2022/07/16 01:06:10;;;;;;;0.00;0.00;;;;;;;20.90;54.71;102198.31;5062122;28;20107;-79
2022/07/16 01:08:39;;;;;;;0.45;0.45;;;;;;;20.93;55.14;102192.81;5064470;28;20036;-78
2022/07/16 01:11:11;;;;;;;0.00;0.00;;;;;;;20.95;54.36;102197.19;5064789;28;20040;-78
2022/07/16 01:13:41;;;;;;;0.05;0.05;;;;;;;20.91;54.69;102190.19;5066986;28;20036;-78
2022/07/16 01:16:08;;;;;;;0.32;0.32;;;;;;;20.99;53.83;102195.25;5068712;28;20032;-78
2022/07/16 01:18:35;;;;;;;0.10;0.10;;;;;;;20.93;55.06;102188.28;5069695;28;20028;-78
2022/07/16 01:21:01;;;;;;;0.00;0.00;;;;;;;21.02;54.52;102187.00;5063029;28;20133;-78
2022/07/16 01:23:28;;;;;;;0.10;0.10;;;;;;;21.04;53.95;102189.66;5061863;28;20032;-79
2022/07/16 01:25:54;;;;;;;0.10;0.10;;;;;;;20.93;55.21;102190.97;5063143;28;20078;-79
2022/07/16 01:28:22;;;;;;;0.20;0.20;;;;;;;21.01;54.77;102196.06;5067019;28;20020;-78
2022/07/16 01:30:49;;;;;;;0.00;0.00;;;;;;;21.01;54.52;102187.97;5061656;28;20032;-79
2022/07/16 01:33:23;;;;;;;0.05;0.05;;;;;;;21.04;54.07;102190.53;5068615;28;20032;-78
2022/07/16 01:35:54;;;;;;;0.08;0.08;;;;;;;21.05;54.26;102196.78;5064392;28;20020;-78
2022/07/16 01:38:21;;;;;;;0.20;0.20;;;;;;;21.06;53.73;102193.16;5065651;28;20039;-78
2022/07/16 01:40:47;;;;;;;0.00;0.00;;;;;;;21.04;54.50;102195.91;5060720;28;20025;-79
2022/07/16 01:43:16;;;;;;;0.00;0.00;;;;;;;21.05;54.44;102196.78;5066742;28;20048;-78
2022/07/16 01:45:44;;;;;;;12.75;0.82;;;;;;;21.11;53.86;102191.13;5065687;28;20366;-77
2022/07/16 01:48:12;;;;;;;0.00;0.00;;;;;;;21.04;55.04;102190.53;5067787;28;20024;-78
2022/07/16 01:50:39;;;;;;;0.08;0.08;;;;;;;20.98;54.42;102191.66;5064416;28;20059;-79
2022/07/16 01:53:06;;;;;;;0.05;0.05;;;;;;;20.98;54.87;102198.88;5061105;28;20032;-78
2022/07/16 01:55:33;;;;;;;0.22;0.22;;;;;;;20.93;54.87;102204.44;5067939;28;20104;-78
2022/07/16 01:58:03;;;;;;;0.00;0.00;;;;;;;20.92;54.82;102194.63;5056459;28;20024;-78
2022/07/16 02:00:31;;;;;;;0.10;0.10;;;;;;;20.85;55.46;102202.06;5061153;28;20028;-78
2022/07/16 02:02:58;;;;;;;0.28;0.28;;;;;;;20.82;54.90;102204.03;5065440;28;20032;-78
2022/07/16 02:05:25;;;;;;;0.03;0.03;;;;;;;20.82;55.08;102206.72;5064340;28;20060;-78
2022/07/16 02:07:51;;;;;;;0.00;0.00;;;;;;;20.80;54.65;102203.22;5063905;28;20044;-78
2022/07/16 02:10:18;;;;;;;0.00;0.00;;;;;;;20.78;54.79;102205.97;5066749;28;20060;-77
2022/07/16 02:12:44;;;;;;;0.20;0.20;;;;;;;20.76;54.35;102204.28;5072172;28;20032;-78
2022/07/16 02:15:11;;;;;;;0.10;0.10;;;;;;;20.75;54.53;102210.59;5074222;28;20028;-79
2022/07/16 02:17:37;;;;;;;0.00;0.00;;;;;;;20.64;55.59;102211.03;5069496;28;20024;-79
2022/07/16 02:20:06;;;;;;;0.00;0.00;;;;;;;20.63;55.32;102217.34;5073297;28;20043;-78
2022/07/16 02:22:33;;;;;;;0.13;0.13;;;;;;;20.59;56.34;102211.19;5072389;28;20454;-79
2022/07/16 02:25:00;;;;;;;0.00;0.00;;;;;;;20.57;56.16;102221.16;5069609;28;20064;-79
2022/07/16 02:27:26;;;;;;;0.55;0.55;;;;;;;20.48;57.14;102211.63;5071952;28;20039;-79
2022/07/16 02:29:52;;;;;;;0.43;0.43;;;;;;;20.44;56.39;102209.13;5066844;28;20029;-78
2022/07/16 02:32:18;;;;;;;0.10;0.10;;;;;;;20.45;56.80;102214.47;5073133;28;20081;-79
2022/07/16 02:34:44;;;;;;;0.10;0.10;;;;;;;20.47;56.17;102211.69;5070494;28;20435;-79
2022/07/16 02:37:11;;;;;;;0.20;0.20;;;;;;;20.45;56.68;102214.47;5074930;28;20472;-78
2022/07/16 02:39:37;;;;;;;0.00;0.00;;;;;;;20.38;57.12;102214.78;5073635;28;20043;-79
2022/07/16 02:42:03;;;;;;;0.00;0.00;;;;;;;20.33;56.99;102215.81;5073352;28;20052;-79
2022/07/16 02:44:29;;;;;;;0.20;0.20;;;;;;;20.32;57.06;102219.44;5073621;28;20056;-79
2022/07/16 02:46:55;;;;;;;0.00;0.00;;;;;;;20.30;56.62;102221.31;5074270;28;20107;-79
2022/07/16 02:49:21;;;;;;;0.00;0.00;;;;;;;20.24;57.08;102229.63;5073166;28;20046;-77
2022/07/16 02:51:47;;;;;;;0.10;0.10;;;;;;;20.19;57.52;102237.00;5071760;28;20411;-79
2022/07/16 02:54:14;;;;;;;0.10;0.10;;;;;;;20.13;57.94;102240.81;5104845;22;20118;-79
2022/07/16 02:56:40;;;;;;;0.00;0.00;;;;;;;20.13;57.55;102240.81;5113145;28;20036;-81
2022/07/16 02:59:06;;;;;;;0.00;0.00;;;;;;;20.11;57.74;102244.50;5112372;28;20020;-80
2022/07/16 03:01:32;;;;;;;0.00;0.00;;;;;;;20.10;57.27;102248.09;5107641;28;20122;-80
2022/07/16 03:03:59;;;;;;;0.30;0.30;;;;;;;20.06;56.47;102254.56;5106560;28;20367;-80
2022/07/16 03:06:25;;;;;;;0.00;0.00;;;;;;;19.97;59.11;102253.94;5100039;28;20574;-79
2022/07/16 03:08:51;;;;;;;0.03;0.03;;;;;;;19.94;58.87;102262.16;5091952;28;20435;-79
2022/07/16 03:11:17;;;;;;;0.45;0.45;;;;;;;19.93;57.59;102263.06;5092734;28;20028;-80
2022/07/16 03:13:44;;;;;;;0.00;0.00;;;;;;;19.86;58.79;102266.91;5095152;28;20120;-81
2022/07/16 03:16:10;;;;;;;0.00;0.00;;;;;;;19.83;59.27;102264.34;5096404;28;20024;-82
2022/07/16 03:18:36;;;;;;;0.00;0.00;;;;;;;19.85;58.73;102267.84;5081800;28;20040;-81
2022/07/16 03:21:03;;;;;;;0.00;0.00;;;;;;;19.77;60.50;102269.94;5094780;28;20514;-81
2022/07/16 03:23:29;;;;;;;0.00;0.00;;;;;;;19.73;58.81;102271.84;5093575;28;20131;-79
2022/07/16 03:25:55;;;;;;;0.10;0.10;;;;;;;19.76;59.81;102269.03;5095265;28;20032;-80
2022/07/16 03:28:21;;;;;;;0.05;0.05;;;;;;;19.72;60.26;102278.16;5094081;28;20099;-80
2022/07/16 03:30:47;;;;;;;0.00;0.00;;;;;;;19.72;59.75;102273.63;5093053;28;20061;-80
2022/07/16 03:33:13;;;;;;;0.00;0.00;;;;;;;19.62;60.95;102274.91;5094696;28;20035;-80
2022/07/16 03:35:39;;;;;;;0.35;0.15;;;;;;;19.64;60.78;102285.59;5093726;28;20563;-80
2022/07/16 03:40:51;;;;;;;0.00;0.00;;;;;;;19.68;60.05;102293.50;5092754;28;20067;-81
2022/07/16 03:43:17;;;;;;;0.00;0.00;;;;;;;19.66;60.15;102292.66;5091826;28;20165;-81
2022/07/16 03:45:43;;;;;;;0.00;0.00;;;;;;;19.67;59.52;102301.63;5090305;28;20028;-81
2022/07/16 03:48:09;;;;;;;0.00;0.00;;;;;;;19.67;59.19;102294.44;5082878;28;20062;-82
2022/07/16 03:50:36;;;;;;;0.10;0.10;;;;;;;19.68;60.04;102298.03;5090241;28;20032;-81
2022/07/16 03:53:02;;;;;;;0.00;0.00;;;;;;;19.70;60.19;102296.13;5089800;28;20032;-80
2022/07/16 03:55:28;;;;;;;0.03;0.03;;;;;;;19.76;59.98;102295.06;5087459;28;20043;-80
2022/07/16 03:57:54;;;;;;;0.00;0.00;;;;;;;19.80;59.52;102302.97;5086833;28;20138;-81
2022/07/16 04:00:20;;;;;;;0.00;0.00;;;;;;;19.86;59.60;102312.63;5091868;28;20036;-82
2022/07/16 04:02:46;;;;;;;0.00;0.00;;;;;;;19.90;59.53;102314.31;5084519;28;20028;-81
2022/07/16 04:05:12;;;;;;;1.08;1.08;;;;;;;19.80;62.10;102305.66;5082955;28;20115;-81
2022/07/16 04:07:39;;;;;;;0.00;0.00;;;;;;;19.81;61.29;102309.22;5091400;28;20063;-81
2022/07/16 04:10:06;;;;;;;0.05;0.05;;;;;;;19.77;61.48;102308.44;5092337;28;20427;-80
2022/07/16 04:12:32;;;;;;;0.00;0.00;;;;;;;19.73;61.76;102315.72;5094734;28;20061;-82
2022/07/16 04:14:59;;;;;;;0.10;0.10;;;;;;;19.67;62.83;102313.25;5096754;28;20016;-81
2022/07/16 04:17:26;;;;;;;0.10;0.10;;;;;;;19.60;63.44;102316.22;5091661;28;20032;-82
2022/07/16 04:19:52;;;;;;;0.00;0.00;;;;;;;19.56;63.37;102315.44;5091996;28;20059;-82
2022/07/16 04:22:18;;;;;;;0.00;0.00;;;;;;;19.56;62.17;102320.81;5094955;28;20448;-81
2022/07/16 04:24:44;;;;;;;0.03;0.03;;;;;;;19.51;62.91;102325.47;5090015;28;20034;-82
2022/07/16 04:27:10;;;;;;;0.00;0.00;;;;;;;19.46;63.19;102324.75;5096101;28;20397;-79
2022/07/16 04:29:36;;;;;;;0.00;0.00;;;;;;;19.45;63.49;102331.97;5090702;28;20039;-80
2022/07/16 04:32:02;;;;;;;0.00;0.00;;;;;;;19.46;62.85;102340.88;5092225;28;20111;-82
2022/07/16 04:34:29;;;;;;;0.10;0.10;;;;;;;19.39;63.86;102340.22;5090134;28;20040;-82
2022/07/16 04:36:55;;;;;;;0.10;0.10;;;;;;;19.39;63.34;102345.59;5089175;28;20039;-80
2022/07/16 04:39:21;;;;;;;0.00;0.00;;;;;;;19.39;63.24;102346.47;5094992;28;20028;-80
2022/07/16 04:41:47;;;;;;;0.00;0.00;;;;;;;19.43;62.45;102344.56;5095290;28;20044;-82
2022/07/16 04:44:13;;;;;;;0.00;0.00;;;;;;;19.47;61.83;102353.41;5084748;28;20035;-81
2022/07/16 04:46:39;;;;;;;0.03;0.03;;;;;;;19.47;62.44;102351.59;5083569;28;20043;-81
2022/07/16 04:49:05;;;;;;;0.00;0.00;;;;;;;19.45;63.20;102350.78;5082606;28;20086;-82
2022/07/16 04:51:32;;;;;;;0.05;0.05;;;;;;;19.42;63.80;102358.06;5085364;28;20032;-81
2022/07/16 04:53:58;;;;;;;0.10;0.10;;;;;;;19.47;62.65;102359.66;5093558;28;20032;-81
2022/07/16 04:56:24;;;;;;;0.00;0.00;;;;;;;19.39;63.36;102359.03;5089166;28;20156;-81
2022/07/16 04:58:50;;;;;;;0.03;0.03;;;;;;;19.50;62.42;102353.28;5087762;28;20051;-82
2022/07/16 05:01:16;;;;;;;0.00;0.00;;;;;;;19.52;61.88;102359.50;5093737;28;20028;-83
2022/07/16 05:03:42;;;;;;;0.00;0.00;;;;;;;19.50;62.75;102364.03;5094471;28;20108;-81
2022/07/16 05:06:08;;;;;;;0.05;0.05;;;;;;;19.52;62.57;102363.06;5095320;28;20032;-81
2022/07/16 05:08:35;;;;;;;0.00;0.00;;;;;;;19.50;62.33;102359.56;5092355;28;20407;-81
2022/07/16 05:11:01;;;;;;;0.00;0.00;;;;;;;19.52;62.41;102367.56;5089608;28;20514;-81
2022/07/16 05:13:27;;;;;;;0.05;0.05;;;;;;;19.51;62.24;102368.50;5091027;28;20032;-81
2022/07/16 05:15:53;;;;;;;0.10;0.10;;;;;;;19.53;61.81;102362.13;5083777;28;20040;-82
2022/07/16 05:18:19;;;;;;;0.00;0.00;;;;;;;19.48;62.42;102377.53;5082697;28;20025;-82
2022/07/16 05:20:45;;;;;;;0.20;0.20;;;;;;;19.53;61.81;102374.72;5090337;28;20028;-82
2022/07/16 05:23:11;;;;;;;0.10;0.10;;;;;;;19.47;62.15;102380.28;5085004;28;20059;-82
2022/07/16 05:25:37;;;;;;;0.10;0.10;;;;;;;19.51;61.94;102377.41;5087780;28;20028;-82
2022/07/16 05:28:03;;;;;;;0.03;0.03;;;;;;;19.53;61.78;102380.09;5090970;28;20044;-81
2022/07/16 05:30:29;;;;;;;0.00;0.00;;;;;;;19.56;61.49;102382.66;5089344;28;20082;-80
2022/07/16 05:32:55;;;;;;;0.00;0.00;;;;;;;19.55;61.23;102383.56;5090367;28;20025;-80
2022/07/16 05:35:22;;;;;;;0.00;0.00;;;;;;;19.59;60.74;102379.88;5093314;28;20444;-82
2022/07/16 05:37:48;;;;;;;0.00;0.00;;;;;;;19.62;60.67;102387.81;5085846;28;20034;-80
2022/07/16 05:40:14;;;;;;;0.05;0.05;;;;;;;19.64;60.40;102391.34;5090148;28;20086;-79
2022/07/16 05:42:40;;;;;;;0.00;0.00;;;;;;;19.57;60.49;102387.09;5087976;28;20032;-81
2022/07/16 05:45:07;;;;;;;0.00;0.00;;;;;;;19.58;59.99;102388.88;5086838;28;20035;-80
2022/07/16 05:47:33;;;;;;;0.00;0.00;;;;;;;19.58;59.56;102394.25;5082817;28;20081;-82
2022/07/16 05:50:01;;;;;;;0.00;0.00;;;;;;;19.69;59.51;102397.44;5092548;28;20047;-82
2022/07/16 05:52:27;;;;;;;0.10;0.10;;;;;;;19.68;59.62;102395.69;5091966;28;20044;-81
2022/07/16 05:54:53;;;;;;;0.00;0.00;;;;;;;19.65;59.91;102400.28;5092410;28;20025;-83
2022/07/16 05:57:19;;;;;;;0.00;0.00;;;;;;;19.73;59.69;102404.47;5088153;28;20107;-80
2022/07/16 05:59:45;;;;;;;0.30;0.30;;;;;;;19.76;58.81;102400.78;5088180;28;20036;-81
2022/07/16 06:02:11;;;;;;;0.00;0.00;;;;;;;19.80;58.29;102412.34;5094775;28;20036;-81
2022/07/16 06:04:38;;;;;;;0.00;0.00;;;;;;;19.85;58.37;102413.09;5095498;28;20044;-81
2022/07/16 06:07:04;;;;;;;0.03;0.03;;;;;;;19.90;57.65;102418.31;5095353;28;20408;-82
2022/07/16 06:09:30;;;;;;;0.00;0.00;;;;;;;19.83;57.07;102409.59;5092729;28;20054;-82
2022/07/16 06:11:56;;;;;;;0.65;0.45;;;;;;;19.92;57.34;102416.47;5088577;28;20037;-81
2022/07/16 06:14:22;;;;;;;0.10;0.10;;;;;;;19.94;56.86;102418.16;5091857;28;20047;-82
2022/07/16 06:16:48;;;;;;;0.25;0.25;;;;;;;19.98;56.50;102422.50;5098982;28;20038;-82
2022/07/16 06:19:15;;;;;;;0.08;0.08;;;;;;;20.11;56.55;102424.75;5098996;28;20457;-81
2022/07/16 06:21:41;;;;;;;0.00;0.00;;;;;;;20.14;56.21;102424.66;5093532;28;20039;-81
2022/07/16 06:24:07;;;;;;;0.00;0.00;;;;;;;20.13;56.04;102428.28;5097746;28;20050;-81
2022/07/16 06:26:33;;;;;;;0.05;0.03;;;;;;;20.27;55.65;102433.19;5096465;28;20032;-82
2022/07/16 06:29:00;;;;;;;0.00;0.00;;;;;;;20.26;55.64;102435.00;5096057;28;20027;-83
2022/07/16 06:31:26;;;;;;;0.03;0.03;;;;;;;20.32;55.60;102440.13;5096335;28;20032;-81
2022/07/16 06:33:52;;;;;;;0.00;0.00;;;;;;;20.38;55.69;102443.56;5087437;28;20031;-83
2022/07/16 06:36:18;;;;;;;0.08;0.08;;;;;;;20.28;54.76;102438.50;5081596;28;20020;-81
2022/07/16 06:38:44;;;;;;;0.00;0.00;;;;;;;20.33;54.09;102443.72;5093023;28;20089;-82
2022/07/16 06:41:10;;;;;;;0.00;0.00;;;;;;;20.40;54.57;102449.75;5092418;28;20036;-81
2022/07/16 06:43:36;;;;;;;0.00;0.00;;;;;;;20.46;53.87;102453.13;5091244;28;20020;-82
2022/07/16 06:46:03;;;;;;;0.60;0.60;;;;;;;20.50;53.76;102461.97;5089677;28;20061;-82
2022/07/16 06:48:29;;;;;;;0.00;0.00;;;;;;;20.49;53.01;102463.78;5092722;28;20129;-82
2022/07/16 06:50:55;;;;;;;0.00;0.00;;;;;;;20.52;52.77;102462.78;5090179;28;20483;-82
2022/07/16 06:53:21;;;;;;;0.75;0.63;;;;;;;20.57;52.01;102462.63;5095440;28;20031;-82
2022/07/16 06:55:47;;;;;;;0.00;0.00;;;;;;;20.62;52.11;102464.22;5097063;28;20051;-81
2022/07/16 06:58:13;;;;;;;0.00;0.00;;;;;;;20.71;51.93;102470.19;5095850;28;20024;-82
2022/07/16 07:00:39;;;;;;;0.00;0.00;;;;;;;20.76;52.48;102462.84;5093091;28;20525;-79
2022/07/16 07:03:05;;;;;;;0.10;0.10;;;;;;;20.81;52.19;102480.59;5090156;28;20230;-82
2022/07/16 07:05:31;;;;;;;0.30;0.30;;;;;;;20.72;49.75;102474.69;5087730;28;20059;-82
2022/07/16 07:07:57;;;;;;;0.00;0.00;;;;;;;20.89;51.38;102482.16;5091686;28;20032;-82
2022/07/16 07:10:24;;;;;;;0.00;0.00;;;;;;;20.90;49.96;102484.78;5087516;28;20032;-81
2022/07/16 07:12:52;;;;;;;0.43;0.43;;;;;;;20.91;48.74;102480.25;5090446;28;20040;-82
2022/07/16 07:15:19;;;;;;;0.00;0.00;;;;;;;20.91;49.05;102491.94;5088752;28;20016;-83
2022/07/16 07:17:45;;;;;;;0.00;0.00;;;;;;;20.91;49.69;102494.63;5095259;28;20169;-80
2022/07/16 07:20:11;;;;;;;0.00;0.00;;;;;;;20.88;49.02;102486.63;5095359;28;20031;-81
2022/07/16 07:22:38;;;;;;;0.00;0.00;;;;;;;20.86;49.77;102491.22;5087974;28;20031;-82
2022/07/16 07:25:04;;;;;;;0.00;0.00;;;;;;;20.81;48.39;102491.38;5096208;28;20111;-79
2022/07/16 07:27:39;;;;;;;15.00;0.55;;;;;;;20.87;49.45;102495.66;5085416;28;20499;-81
2022/07/16 07:30:06;;;;;;;0.00;0.00;;;;;;;20.93;49.49;102495.41;5095225;28;20035;-81
2022/07/16 07:32:32;;;;;;;0.05;0.05;;;;;;;20.98;49.72;102498.81;5100312;28;20111;-80
2022/07/16 07:34:58;;;;;;;0.00;0.00;;;;;;;21.03;50.03;102490.56;5094725;28;20089;-80
2022/07/16 07:37:24;;;;;;;0.00;0.00;;;;;;;21.14;49.97;102492.88;5094221;28;20103;-80
2022/07/16 07:39:51;;;;;;;0.00;0.00;;;;;;;21.17;49.61;102501.72;5094274;28;20028;-80
2022/07/16 07:42:17;;;;;;;0.20;0.20;;;;;;;21.29;49.55;102500.34;5098368;28;20031;-82
2022/07/16 07:44:43;;;;;;;0.03;0.03;;;;;;;21.37;49.74;102494.66;5091933;28;20040;-81
2022/07/16 07:47:09;;;;;;;0.00;0.00;;;;;;;21.46;49.28;102496.13;5092612;28;20038;-81
2022/07/16 07:49:35;;;;;;;0.00;0.00;;;;;;;21.55;49.29;102493.03;5091021;28;20531;-80
2022/07/16 07:52:02;;;;;;;0.03;0.03;;;;;;;21.62;49.28;102501.78;5088463;28;20024;-79
2022/07/16 07:54:28;;;;;;;0.00;0.00;;;;;;;;;;5092669;28;20031;-79
2022/07/16 07:56:54;;;;;;;0.10;0.10;;;;;;;21.65;46.94;102505.25;5090372;28;20031;-80
2022/07/16 07:59:20;;;;;;;0.00;0.00;;;;;;;21.76;48.76;102498.56;5098976;28;20028;-81
2022/07/16 08:01:46;;;;;;;0.00;0.00;;;;;;;21.81;48.40;102497.41;5099978;28;20028;-81
2022/07/16 08:04:13;;;;;;;0.00;0.00;;;;;;;21.91;47.63;102503.31;5090494;28;20574;-81
2022/07/16 08:06:39;;;;;;;0.00;0.00;;;;;;;21.98;47.08;102506.63;5091253;28;20070;-80
2022/07/16 08:09:05;;;;;;;0.98;0.45;;;;;;;22.03;46.31;102510.03;5089108;28;20024;-82
2022/07/16 08:11:31;;;;;;;0.05;0.05;;;;;;;22.01;46.59;102503.81;5092441;28;20575;-81
2022/07/16 08:13:57;;;;;;;0.00;0.00;;;;;;;22.06;45.72;102509.00;5087003;28;20119;-82
2022/07/16 08:16:24;;;;;;;0.00;0.00;;;;;;;22.13;46.13;102511.38;5091897;28;20027;-84
2022/07/16 08:18:50;;;;;;;8.90;1.95;;;;;;;22.21;46.16;102519.16;5095175;28;20070;-84
2022/07/16 08:21:16;;;;;;;0.38;0.38;;;;;;;22.24;45.85;102527.13;5091775;28;20023;-84
2022/07/16 08:26:28;;;;;;;0.00;0.00;;;;;;;22.36;44.50;102527.53;5093671;28;20058;-84
2022/07/16 08:28:54;;;;;;;0.05;0.05;;;;;;;22.39;45.35;102532.84;5092304;28;20036;-83
2022/07/16 08:31:20;;;;;;;0.15;0.15;;;;;;;22.41;44.33;102536.34;5099594;28;20024;-83
2022/07/16 08:33:46;;;;;;;0.00;0.00;;;;;;;22.47;44.30;102541.50;5097617;28;20024;-83
2022/07/16 08:36:12;;;;;;;0.10;0.10;;;;;;;22.50;43.70;102540.47;5094823;28;20028;-84
2022/07/16 08:38:38;;;;;;;0.00;0.00;;;;;;;22.48;43.31;102540.56;5093605;28;20067;-84
2022/07/16 08:41:05;;;;;;;0.00;0.00;;;;;;;22.54;43.98;102543.00;5094148;28;20040;-84
2022/07/16 08:43:32;;;;;;;0.08;0.08;;;;;;;22.45;42.44;102549.66;5095414;28;20032;-85
2022/07/16 08:45:59;;;;;;;0.10;0.10;;;;;;;22.44;42.91;102547.00;5094316;28;20028;-84
2022/07/16 08:48:25;;;;;;;0.00;0.00;;;;;;;22.39;41.78;102549.94;5094488;28;20055;-84
2022/07/16 08:50:54;;;;;;;0.00;0.00;;;;;;;22.50;42.70;102553.97;5089790;28;20024;-84
2022/07/16 08:53:23;;;;;;;0.00;0.00;;;;;;;22.55;43.01;102560.94;5085846;28;20434;-83
2022/07/16 08:55:52;;;;;;;0.10;0.10;;;;;;;22.52;41.67;102566.47;5106325;22;20044;-80
2022/07/16 08:58:18;;;;;;;0.00;0.00;;;;;;;22.64;42.62;102565.03;5069305;28;20058;-80
2022/07/16 09:00:45;;;;;;;0.00;0.00;;;;;;;22.69;42.28;102563.06;5069466;28;20044;-79
2022/07/16 09:03:15;;;;;;;0.10;0.10;;;;;;;22.84;41.49;102572.31;5073343;28;20123;-80
2022/07/16 09:05:41;;;;;;;0.00;0.00;;;;;;;23.05;42.02;102564.16;5069769;28;20009;-80
2022/07/16 09:08:08;;;;;;;0.00;0.00;;;;;;;23.29;41.85;102564.00;5077762;28;20032;-79
2022/07/16 09:10:36;;;;;;;0.00;0.00;;;;;;;23.45;41.45;102565.03;5078468;28;20040;-80
2022/07/16 09:13:05;;;;;;;0.00;0.00;;;;;;;23.64;41.43;102567.75;5054528;28;20027;-80
2022/07/16 09:15:35;;;;;;;0.00;0.00;;;;;;;23.73;39.67;102570.00;5077908;28;20078;-79
2022/07/16 09:18:25;;;;;;;0.05;0.05;;;;;;;23.86;41.55;102562.19;5065069;28;20090;-79
2022/07/16 09:26:08;;;;;;;0.05;0.05;;;;;;;24.01;39.48;102565.09;5067753;27;20391;-79
2022/07/16 09:28:51;;;;;;;0.00;0.00;;;;;;;23.99;38.95;102558.88;5057644;28;20090;-79
2022/07/16 09:31:39;;;;;;;0.00;0.00;;;;;;;24.23;40.24;102554.94;5055084;28;20032;-79
2022/07/16 09:36:57;;;;;;;0.05;0.05;;;;;;;24.60;38.82;102583.78;5100448;27;20408;-79
2022/07/16 09:39:24;;;;;;;0.00;0.00;;;;;;;24.65;38.93;102573.63;5092353;28;20020;-81
2022/07/16 09:41:51;;;;;;;0.13;0.13;;;;;;;24.61;37.82;102580.13;5087832;28;20148;-81
2022/07/16 09:44:27;;;;;;;1.35;0.57;;;;;;;24.76;38.40;102584.81;5084122;28;20043;-81
2022/07/16 09:47:13;;;;;;;0.17;0.17;;;;;;;24.80;36.64;102585.47;5089975;28;20407;-81
2022/07/16 09:49:49;;;;;;;0.10;0.10;;;;;;;24.74;37.98;102586.69;5082348;28;20028;-81
2022/07/16 09:52:33;;;;;;;0.00;0.00;;;;;;;24.85;39.00;102589.72;5086934;28;20052;-81
2022/07/16 09:55:00;;;;;;;0.00;0.00;;;;;;;24.83;38.07;102588.91;5079777;28;20025;-81
2022/07/16 09:57:28;;;;;;;0.20;0.20;;;;;;;24.81;36.84;102596.28;5096707;28;20042;-81
2022/07/16 09:59:56;;;;;;;0.00;0.00;;;;;;;24.93;37.16;102593.88;5090507;28;20024;-81
2022/07/16 10:02:23;;;;;;;0.10;0.10;;;;;;;24.85;36.65;102591.56;5081626;28;20097;-81
2022/07/16 10:04:49;;;;;;;0.10;0.10;;;;;;;24.55;35.88;102597.59;5090392;28;20032;-81
2022/07/16 10:07:17;;;;;;;0.00;0.00;;;;;;;24.45;35.90;102602.63;5090067;28;20038;-81
2022/07/16 10:09:44;;;;;;;0.00;0.00;;;;;;;24.40;36.18;102599.28;5088835;28;20054;-80
2022/07/16 10:12:14;;;;;;;0.00;0.00;;;;;;;24.39;36.82;102592.94;5080056;28;20028;-80
2022/07/16 10:14:45;;;;;;;0.70;0.70;;;;;;;24.55;37.16;102597.59;5089100;28;20115;-80
2022/07/16 10:19:57;;;;;;;0.00;0.00;;;;;;;24.48;35.71;102607.00;5106139;27;20170;-83
2022/07/16 10:22:34;;;;;;;0.00;0.00;;;;;;;24.59;36.63;102603.75;5088291;28;20097;-83
2022/07/16 10:25:00;;;;;;;0.00;0.00;;;;;;;24.50;36.43;102611.38;5092068;28;20028;-81
2022/07/16 10:27:35;;;;;;;0.00;0.00;;;;;;;24.57;37.19;102608.34;5086847;28;20106;-80
2022/07/16 10:30:23;;;;;;;0.00;0.00;;;;;;;24.77;37.15;102608.22;5092649;28;20039;-79
2022/07/16 10:35:44;;;;;;;0.00;0.00;;;;;;;24.80;36.73;102618.00;5110709;27;20378;-79
2022/07/16 10:38:18;;;;;;;0.00;0.00;;;;;;;24.91;36.32;102617.47;5107428;27;20036;-79
2022/07/16 10:40:45;;;;;;;0.00;0.00;;;;;;;24.91;36.22;102620.16;5122523;28;20036;-78
2022/07/16 10:43:17;;;;;;;0.10;0.10;;;;;;;24.85;36.28;102615.97;5108982;28;20023;-81
2022/07/16 10:46:02;;;;;;;0.00;0.00;;;;;;;24.91;34.59;102628.31;5106577;27;20482;-81
2022/07/16 10:48:30;;;;;;;0.10;0.10;;;;;;;24.82;36.48;102626.94;5115758;28;20106;-81
2022/07/16 10:56:52;;;;;;;0.10;0.10;;;;;;;25.03;36.44;102631.25;5088937;27;1170988;-78
2022/07/16 10:59:21;;;;;;;1.45;0.88;;;;;;;25.13;35.63;102631.63;5116097;28;20807;-80
2022/07/16 11:01:51;;;;;;;0.00;0.00;;;;;;;25.19;36.50;102631.28;5121094;28;20028;-80
2022/07/16 11:04:25;;;;;;;0.05;0.05;;;;;;;25.19;34.80;102638.56;5119509;28;20023;-80
2022/07/16 11:06:51;;;;;;;0.00;0.00;;;;;;;25.25;35.39;102640.09;5119178;27;20038;-80
2022/07/16 11:09:26;;;;;;;0.00;0.00;;;;;;;25.32;35.56;102636.94;5118044;28;20100;-80
2022/07/16 11:11:54;;;;;;;0.77;0.25;;;;;;;25.40;34.24;102639.28;5121136;28;20361;-80
2022/07/16 11:14:27;;;;;;;0.00;0.00;;;;;;;25.52;35.42;102638.59;5125849;28;20035;-79
2022/07/16 11:16:53;;;;;;;0.22;0.22;;;;;;;25.71;36.19;102648.44;5126741;27;20541;-79
2022/07/16 11:19:19;;;;;;;0.10;0.10;;;;;;;25.74;35.13;102644.69;5128556;28;20032;-80
2022/07/16 11:24:30;;;;;;;0.10;0.10;;;;;;;25.43;35.27;102646.38;5075350;28;20402;-78
2022/07/16 11:26:57;;;;;;;0.10;0.10;;;;;;;25.26;35.14;102650.84;5070419;28;20079;-77
2022/07/16 11:29:25;;;;;;;0.10;0.10;;;;;;;25.20;34.33;102662.03;5059662;28;20032;-77
2022/07/16 11:31:52;;;;;;;0.45;0.45;;;;;;;25.17;34.71;102652.22;5056723;28;20031;-76
2022/07/16 11:34:19;;;;;;;0.10;0.10;;;;;;;25.45;35.71;102648.03;5056187;28;20485;-76
2022/07/16 11:36:50;;;;;;;0.00;0.00;;;;;;;25.61;35.63;102653.50;5057860;28;20078;-78
2022/07/16 11:39:19;;;;;;;0.00;0.00;;;;;;;25.54;34.73;102656.66;5053792;28;20037;-76
2022/07/16 11:41:48;;;;;;;0.10;0.10;;;;;;;25.52;35.70;102660.31;5050449;28;20291;-77
2022/07/16 11:44:21;;;;;;;0.00;0.00;;;;;;;25.57;35.27;102654.63;5054797;28;20035;-76
2022/07/16 11:49:32;;;;;;;0.00;0.00;;;;;;;25.55;35.06;102655.69;5103972;27;20418;-76
2022/07/16 11:52:02;;;;;;;0.10;0.10;;;;;;;25.19;35.11;102669.25;5098931;28;20027;-76
2022/07/16 11:54:29;;;;;;;0.00;0.00;;;;;;;25.18;34.98;102664.81;5109490;28;20534;-76
2022/07/16 11:56:56;;;;;;;0.10;0.10;;;;;;;25.28;34.78;102670.59;5086767;27;20040;-76
2022/07/16 11:59:26;;;;;;;0.00;0.00;;;;;;;25.39;35.01;102667.34;5084053;28;20059;-77